Time;durP1;ratioP1;P1;durP2;ratioP2;P2;SDS_P1;SDS_P2;PMS_P1;PMS_P2;Temp;Humidity;BMP_temperature;BMP_pressure;BME280_temperature;BME280_humidity;BME280_pressure;Samples;Min_cycle;Max_cycle;Signal;HPM_P1;HPM_P2
2022/06/11 00:00:25;;;;;;;1999.90;999.90;;;11.20;99.90;;;;;;5014203;28;20247;-87
2022/06/11 00:02:51;;;;;;;1999.90;999.90;;;11.20;99.90;;;;;;5012679;28;20437;-87
2022/06/11 00:05:17;;;;;;;1999.90;999.90;;;11.10;99.90;;;;;;5012374;28;20473;-87
2022/06/11 00:07:43;;;;;;;1999.90;999.90;;;11.00;99.90;;;;;;5013810;28;20120;-88
2022/06/11 00:10:09;;;;;;;1999.90;999.90;;;11.00;99.90;;;;;;5013271;28;20521;-87
2022/06/11 00:12:36;;;;;;;1999.90;999.90;;;11.00;99.90;;;;;;5012530;28;20061;-88
2022/06/11 00:15:04;;;;;;;1999.90;999.90;;;11.00;99.90;;;;;;5023355;28;20026;-88
2022/06/11 00:17:30;;;;;;;1999.90;999.90;;;10.90;99.90;;;;;;5021180;28;20032;-87
2022/06/11 00:19:56;;;;;;;1999.90;999.90;;;10.80;99.90;;;;;;5019368;28;20398;-88
2022/06/11 00:22:22;;;;;;;1999.90;999.90;;;10.80;99.90;;;;;;5020503;28;20025;-88
2022/06/11 00:24:49;;;;;;;1999.90;999.90;;;10.70;99.90;;;;;;5001549;28;20041;-87
2022/06/11 00:27:15;;;;;;;1999.90;999.90;;;10.80;99.90;;;;;;5017597;28;20042;-87
2022/06/11 00:29:43;;;;;;;1999.90;999.90;;;10.80;99.90;;;;;;5015117;28;20034;-87
2022/06/11 00:32:10;;;;;;;1999.90;999.90;;;10.80;99.90;;;;;;5007822;28;20068;-88
2022/06/11 00:34:37;;;;;;;1999.90;999.90;;;10.70;99.90;;;;;;5015731;28;20117;-88
2022/06/11 00:37:03;;;;;;;1999.90;999.90;;;10.70;99.90;;;;;;5010713;28;20501;-87
2022/06/11 00:39:33;;;;;;;1999.90;999.90;;;10.60;99.90;;;;;;5010259;28;20030;-88
2022/06/11 00:42:04;;;;;;;1999.90;999.90;;;10.70;99.90;;;;;;5007976;28;20503;-88
2022/06/11 00:44:29;;;;;;;;;;;10.70;99.90;;;;;;5020608;28;20047;-88
2022/06/11 00:47:13;;;;;;;1999.90;999.90;;;10.60;99.90;;;;;;5000971;28;19917;-87
2022/06/11 00:49:55;;;;;;;1999.90;999.90;;;10.60;99.90;;;;;;5012607;28;20037;-88
2022/06/11 00:52:32;;;;;;;1999.90;999.90;;;10.40;99.90;;;;;;5020735;28;20377;-87
2022/06/11 00:55:18;;;;;;;1999.90;999.90;;;10.40;99.90;;;;;;5010519;28;20026;-87
2022/06/11 00:57:55;;;;;;;1999.90;999.90;;;10.40;99.90;;;;;;5017038;28;20220;-88
2022/06/11 01:00:28;;;;;;;1999.90;999.90;;;10.40;99.90;;;;;;5017926;28;20046;-87
2022/06/11 01:02:53;;;;;;;1999.90;999.90;;;10.40;99.90;;;;;;5010039;28;20038;-88
2022/06/11 01:05:24;;;;;;;1999.90;999.90;;;10.40;99.90;;;;;;5009898;28;20292;-88
2022/06/11 01:08:14;;;;;;;1999.90;999.90;;;10.30;99.90;;;;;;5012853;28;20034;-88
2022/06/11 01:11:11;;;;;;;1999.90;999.90;;;10.30;99.90;;;;;;5005685;28;20083;-87
2022/06/11 01:13:55;;;;;;;1999.90;999.90;;;10.20;99.90;;;;;;5016581;28;20052;-88
2022/06/11 01:16:44;;;;;;;1999.90;999.90;;;10.20;99.90;;;;;;5019620;28;20030;-88
2022/06/11 01:19:28;;;;;;;1999.90;999.90;;;10.10;99.90;;;;;;5009594;28;20046;-87
2022/06/11 01:22:18;;;;;;;1999.90;999.90;;;10.00;99.90;;;;;;5013247;28;20243;-87
2022/06/11 01:24:50;;;;;;;1999.90;999.90;;;10.00;99.90;;;;;;5013042;28;20060;-88
2022/06/11 01:27:55;;;;;;;1999.90;999.90;;;10.00;99.90;;;;;;5014077;28;20481;-87
2022/06/11 01:30:23;;;;;;;1999.90;999.90;;;10.00;99.90;;;;;;5043891;28;20033;-86
2022/06/11 01:32:52;;;;;;;1999.90;999.90;;;9.90;99.90;;;;;;5012921;28;20036;-87
2022/06/11 01:35:34;;;;;;;1999.90;999.90;;;9.80;99.90;;;;;;5012258;28;20064;-86
2022/06/11 01:38:10;;;;;;;1999.90;999.90;;;9.80;99.90;;;;;;5006305;28;20077;-88
2022/06/11 01:40:51;;;;;;;1999.90;999.90;;;9.80;99.90;;;;;;5005280;28;20228;-87
2022/06/11 01:43:35;;;;;;;1999.90;999.90;;;9.80;99.90;;;;;;5010449;28;20038;-88
2022/06/11 01:46:10;;;;;;;1999.90;999.90;;;9.70;99.90;;;;;;5002647;28;20693;-86
2022/06/11 01:48:35;;;;;;;1999.90;999.90;;;9.80;99.90;;;;;;5017399;28;20037;-87
2022/06/11 01:51:22;;;;;;;1999.90;999.90;;;9.80;99.90;;;;;;5019292;28;20160;-88
2022/06/11 01:54:45;;;;;;;1999.90;999.90;;;9.70;99.90;;;;;;5019233;28;20033;-88
2022/06/11 01:57:17;;;;;;;1999.90;999.90;;;9.70;99.90;;;;;;4965030;28;20066;-88
2022/06/11 02:00:04;;;;;;;1999.90;999.90;;;9.60;99.90;;;;;;4965053;28;20043;-87
2022/06/11 02:02:48;;;;;;;1999.90;999.90;;;9.60;99.90;;;;;;5013758;28;20120;-88
2022/06/11 02:05:17;;;;;;;1999.90;999.90;;;9.60;99.90;;;;;;5026068;28;20030;-87
2022/06/11 02:07:59;;;;;;;1999.90;999.90;;;9.60;99.90;;;;;;5028180;28;20335;-88
2022/06/11 02:10:58;;;;;;;1999.90;999.90;;;9.80;99.90;;;;;;5022540;28;20243;-87
2022/06/11 02:13:46;;;;;;;1999.90;999.90;;;9.70;99.90;;;;;;5022286;28;20529;-88
2022/06/11 02:16:33;;;;;;;1999.90;999.90;;;9.70;99.90;;;;;;5033361;28;20088;-88
2022/06/11 02:19:03;;;;;;;1999.90;999.90;;;9.60;99.90;;;;;;5033628;28;20083;-89
2022/06/11 02:21:34;;;;;;;1999.90;999.90;;;9.70;99.90;;;;;;5036529;28;20096;-87
2022/06/11 02:24:28;;;;;;;1999.90;999.90;;;9.60;99.90;;;;;;5036617;28;20280;-87
2022/06/11 02:27:00;;;;;;;1999.90;999.90;;;9.60;99.90;;;;;;5062875;28;20527;-87
2022/06/11 02:29:26;;;;;;;1999.90;999.90;;;9.60;99.90;;;;;;5032666;28;20087;-88
2022/06/11 02:31:59;;;;;;;1999.90;999.90;;;9.60;99.90;;;;;;5013168;28;20517;-87
2022/06/11 02:34:26;;;;;;;1999.90;999.90;;;9.60;99.90;;;;;;5003524;28;20037;-87
2022/06/11 02:37:01;;;;;;;1999.90;999.90;;;9.50;99.90;;;;;;5010311;28;20025;-87
2022/06/11 02:39:31;;;;;;;1999.90;999.90;;;9.50;99.90;;;;;;5004503;28;20113;-88
2022/06/11 02:41:57;;;;;;;1999.90;999.90;;;9.60;99.90;;;;;;5008906;28;20523;-88
2022/06/11 02:44:23;;;;;;;1999.90;999.90;;;9.50;99.90;;;;;;5019501;28;20036;-87
2022/06/11 02:46:49;;;;;;;1999.90;999.90;;;9.40;99.90;;;;;;5018496;28;20123;-87
2022/06/11 02:49:20;;;;;;;1999.90;999.90;;;9.50;99.90;;;;;;5019810;28;20327;-87
2022/06/11 02:51:49;;;;;;;1999.90;999.90;;;9.40;99.90;;;;;;5020127;28;20033;-88
2022/06/11 02:54:16;;;;;;;1999.90;999.90;;;9.40;99.90;;;;;;5015101;28;20030;-87
2022/06/11 02:56:43;;;;;;;1999.90;999.90;;;9.30;99.90;;;;;;5015572;28;20080;-87
2022/06/11 02:59:10;;;;;;;1999.90;999.90;;;9.40;99.90;;;;;;5015413;28;20381;-87
2022/06/11 03:01:36;;;;;;;1999.90;999.90;;;9.30;99.90;;;;;;5013716;28;20091;-88
2022/06/11 03:04:02;;;;;;;1999.90;999.90;;;9.30;99.90;;;;;;5013590;28;20042;-87
2022/06/11 03:06:29;;;;;;;1999.90;999.90;;;9.30;99.90;;;;;;5005722;28;20037;-87
2022/06/11 03:08:57;;;;;;;1999.90;999.90;;;9.20;99.90;;;;;;5003929;28;20179;-88
2022/06/11 03:11:23;;;;;;;1999.90;999.90;;;9.20;99.90;;;;;;5008072;28;20045;-88
2022/06/11 03:13:49;;;;;;;1999.90;999.90;;;9.20;99.90;;;;;;5021034;28;20073;-88
2022/06/11 03:16:15;;;;;;;1999.90;999.90;;;9.10;99.90;;;;;;5020134;28;20030;-87
2022/06/11 03:18:40;;;;;;;1999.90;999.90;;;9.10;99.90;;;;;;5017930;28;20409;-88
2022/06/11 03:21:07;;;;;;;1999.90;999.90;;;9.20;99.90;;;;;;5021924;28;20170;-88
2022/06/11 03:23:32;;;;;;;1999.90;999.90;;;9.00;99.90;;;;;;5019073;28;20036;-88
2022/06/11 03:25:59;;;;;;;1999.90;999.90;;;9.00;99.90;;;;;;5016082;28;20026;-87
2022/06/11 03:28:27;;;;;;;1999.90;999.90;;;8.90;99.90;;;;;;4998374;28;20489;-88
2022/06/11 03:30:54;;;;;;;1999.90;999.90;;;8.90;99.90;;;;;;5015335;28;20088;-87
2022/06/11 03:33:21;;;;;;;1999.90;999.90;;;9.10;99.90;;;;;;5013776;28;20117;-88
2022/06/11 03:35:49;;;;;;;1999.90;999.90;;;9.10;99.90;;;;;;5008775;28;20743;-88
2022/06/11 03:38:16;;;;;;;1999.90;999.90;;;9.10;99.90;;;;;;5011441;28;20038;-87
2022/06/11 03:40:42;;;;;;;1999.90;999.90;;;9.00;99.90;;;;;;5008608;28;20497;-89
2022/06/11 03:43:07;;;;;;;1999.90;999.90;;;9.00;99.90;;;;;;5021245;28;20033;-88
2022/06/11 03:45:33;;;;;;;1999.90;999.90;;;9.10;99.90;;;;;;5023317;28;20052;-88
2022/06/11 03:47:59;;;;;;;1999.90;999.90;;;9.10;99.90;;;;;;5024495;28;20041;-87
2022/06/11 03:50:29;;;;;;;1999.90;999.90;;;9.20;99.90;;;;;;5022147;28;20558;-88
2022/06/11 03:52:56;;;;;;;1999.90;999.90;;;9.30;99.90;;;;;;5011611;28;20124;-87
2022/06/11 03:55:23;;;;;;;1999.90;999.90;;;9.40;99.90;;;;;;5015858;28;20339;-87
2022/06/11 03:57:49;;;;;;;1999.90;999.90;;;9.50;99.90;;;;;;5019557;28;20026;-87
2022/06/11 04:01:14;;;;;;;1999.90;999.90;;;9.50;99.90;;;;;;5015532;28;20050;-88
2022/06/11 04:03:04;;;;;;;1999.90;999.90;;;9.60;99.90;;;;;;5013233;28;20515;-86
2022/06/11 04:05:31;;;;;;;1999.90;999.90;;;9.70;99.90;;;;;;5011472;28;20045;-87
2022/06/11 04:07:57;;;;;;;1999.90;999.90;;;9.80;99.90;;;;;;5006884;28;20034;-88
2022/06/11 04:10:23;;;;;;;1999.90;999.90;;;9.80;99.90;;;;;;5008209;28;20044;-87
2022/06/11 04:12:48;;;;;;;1999.90;999.90;;;9.90;99.90;;;;;;5000037;28;20106;-87
2022/06/11 04:15:14;;;;;;;1999.90;999.90;;;10.00;99.90;;;;;;5018570;28;20136;-88
2022/06/11 04:17:40;;;;;;;1999.90;999.90;;;10.10;99.90;;;;;;5005739;28;20116;-88
2022/06/11 04:20:06;;;;;;;1999.90;999.90;;;10.20;99.90;;;;;;5014845;28;20139;-87
2022/06/11 04:22:32;;;;;;;1999.90;999.90;;;10.30;99.90;;;;;;5019185;28;20037;-88
2022/06/11 04:24:57;;;;;;;1999.90;999.90;;;10.40;99.90;;;;;;5016116;28;20044;-87
2022/06/11 04:27:23;;;;;;;1999.90;999.90;;;10.50;99.90;;;;;;5016940;28;20061;-88
2022/06/11 04:29:53;;;;;;;1999.90;999.90;;;10.60;99.90;;;;;;4998694;28;20104;-87
2022/06/11 04:32:20;;;;;;;1999.90;999.90;;;10.80;99.90;;;;;;5014106;28;20500;-88
2022/06/11 04:34:48;;;;;;;1999.90;999.90;;;10.90;99.90;;;;;;5013999;28;20034;-88
2022/06/11 04:37:16;;;;;;;1999.90;999.90;;;11.00;99.90;;;;;;5008830;28;20034;-88
2022/06/11 04:39:45;;;;;;;1999.90;999.90;;;11.10;99.90;;;;;;5006009;28;20025;-88
2022/06/11 04:42:11;;;;;;;1999.90;999.90;;;11.20;99.90;;;;;;5016325;28;20041;-87
2022/06/11 04:44:39;;;;;;;1999.90;999.90;;;11.40;99.90;;;;;;5022069;28;20444;-87
2022/06/11 04:47:06;;;;;;;1999.90;999.90;;;11.40;99.90;;;;;;5015663;28;20035;-87
2022/06/11 04:49:32;;;;;;;1999.90;999.90;;;11.60;99.90;;;;;;5021234;28;20060;-88
2022/06/11 04:51:57;;;;;;;1999.90;999.90;;;11.70;99.90;;;;;;5019285;28;20127;-87
2022/06/11 04:54:23;;;;;;;1999.90;999.90;;;11.70;99.90;;;;;;5016063;28;20017;-88
2022/06/11 04:56:48;;;;;;;1999.90;999.90;;;11.70;99.90;;;;;;5012479;28;20405;-87
2022/06/11 04:59:14;;;;;;;1999.90;999.90;;;11.80;99.90;;;;;;5009038;28;20490;-88
2022/06/11 05:01:41;;;;;;;1999.90;999.90;;;11.80;99.90;;;;;;5008560;28;20432;-88
2022/06/11 05:04:08;;;;;;;1999.90;999.90;;;12.00;99.90;;;;;;5013262;28;20033;-88
2022/06/11 05:06:39;;;;;;;1999.90;999.90;;;12.00;99.90;;;;;;5004336;28;20061;-88
2022/06/11 05:09:05;;;;;;;;;;;12.20;99.90;;;;;;5008590;28;20098;-87
2022/06/11 05:11:31;;;;;;;1999.90;999.90;;;12.20;99.90;;;;;;5014335;28;19956;-87
2022/06/11 05:13:57;;;;;;;1999.90;999.90;;;12.30;99.90;;;;;;5021082;28;20537;-88
2022/06/11 05:16:22;;;;;;;1999.90;999.90;;;12.40;99.90;;;;;;5020218;28;20386;-87
2022/06/11 05:18:48;;;;;;;1999.90;999.90;;;12.40;99.90;;;;;;5018733;28;20075;-87
2022/06/11 05:21:15;;;;;;;1999.90;999.90;;;12.50;99.90;;;;;;4997772;28;20038;-88
2022/06/11 05:23:40;;;;;;;1999.90;999.90;;;12.50;99.90;;;;;;5018879;28;20080;-88
2022/06/11 05:26:08;;;;;;;1999.90;999.90;;;12.70;99.90;;;;;;5012968;28;20042;-87
2022/06/11 05:28:35;;;;;;;1999.90;999.90;;;12.80;99.90;;;;;;5017356;28;20026;-88
2022/06/11 05:31:01;;;;;;;1999.90;999.90;;;12.80;99.90;;;;;;5013591;28;20038;-88
2022/06/11 05:33:27;;;;;;;1999.90;999.90;;;12.90;99.90;;;;;;5025639;28;20401;-88
2022/06/11 05:35:54;;;;;;;1999.90;999.90;;;12.90;99.90;;;;;;4996068;28;20478;-87
2022/06/11 05:38:23;;;;;;;1999.90;999.90;;;13.00;99.90;;;;;;5007911;28;20414;-87
2022/06/11 05:40:50;;;;;;;1999.90;999.90;;;13.20;99.90;;;;;;4991753;28;20517;-87
2022/06/11 05:43:17;;;;;;;1999.90;999.90;;;13.20;99.90;;;;;;5017181;28;20040;-87
2022/06/11 05:45:53;;;;;;;1999.90;999.90;;;13.20;99.90;;;;;;5037003;28;20030;-87
2022/06/11 05:48:21;;;;;;;1999.90;999.90;;;13.30;99.90;;;;;;5020559;28;20030;-88
2022/06/11 05:50:50;;;;;;;1999.90;999.90;;;13.30;99.90;;;;;;5019645;28;20053;-88
2022/06/11 05:53:18;;;;;;;1999.90;999.90;;;13.40;99.90;;;;;;5016673;28;20034;-88
2022/06/11 05:55:46;;;;;;;1999.90;999.90;;;13.50;99.90;;;;;;5015321;28;20022;-87
2022/06/11 05:58:17;;;;;;;1999.90;999.90;;;13.70;99.90;;;;;;5012197;28;20121;-88
2022/06/11 06:00:43;;;;;;;1999.90;999.90;;;13.80;99.90;;;;;;5015740;28;20037;-88
2022/06/11 06:03:09;;;;;;;1999.90;999.90;;;14.00;99.90;;;;;;5030911;28;20043;-87
2022/06/11 06:05:36;;;;;;;1999.90;999.90;;;14.10;99.90;;;;;;5025688;28;20038;-87
2022/06/11 06:08:01;;;;;;;1999.90;999.90;;;14.20;99.90;;;;;;5023777;28;20408;-87
2022/06/11 06:10:28;;;;;;;1999.90;999.90;;;14.40;99.90;;;;;;5061759;28;20033;-88
2022/06/11 06:12:53;;;;;;;1999.90;999.90;;;14.50;99.90;;;;;;5041529;28;20037;-87
2022/06/11 06:15:23;;;;;;;1999.90;999.90;;;14.60;99.90;;;;;;5009756;28;20034;-87
2022/06/11 06:17:50;;;;;;;1999.90;999.90;;;14.80;99.90;;;;;;5035796;28;20029;-87
2022/06/11 06:20:17;;;;;;;1999.90;999.90;;;15.00;99.90;;;;;;5037540;28;20485;-87
2022/06/11 06:22:44;;;;;;;1999.90;999.90;;;15.10;99.90;;;;;;5032319;28;20160;-87
2022/06/11 06:25:16;;;;;;;1999.90;999.90;;;15.20;99.90;;;;;;5034617;28;20033;-88
2022/06/11 06:27:42;;;;;;;1999.90;999.90;;;15.20;99.90;;;;;;5007900;28;20114;-87
2022/06/11 06:30:08;;;;;;;1999.90;999.90;;;15.40;99.90;;;;;;5015298;28;20034;-88
2022/06/11 06:32:34;;;;;;;1999.90;999.90;;;15.50;99.90;;;;;;5024467;28;20037;-88
2022/06/11 06:34:59;;;;;;;1999.90;999.90;;;15.60;99.90;;;;;;5027143;28;20032;-87
2022/06/11 06:37:25;;;;;;;1999.90;999.90;;;15.70;99.90;;;;;;5017931;28;20060;-88
2022/06/11 06:39:51;;;;;;;1999.90;999.90;;;15.80;99.90;;;;;;5017648;28;20164;-88
2022/06/11 06:42:17;;;;;;;1999.90;999.90;;;15.90;99.90;;;;;;5038398;28;20100;-88
2022/06/11 06:44:43;;;;;;;1999.90;999.90;;;16.00;99.90;;;;;;5027875;28;20083;-87
2022/06/11 06:47:08;;;;;;;1999.90;999.90;;;16.20;99.90;;;;;;5028768;28;20028;-89
2022/06/11 06:49:34;;;;;;;1999.90;999.90;;;16.20;99.90;;;;;;5037414;28;20500;-86
2022/06/11 06:52:00;;;;;;;1999.90;999.90;;;16.30;99.90;;;;;;5034729;28;20496;-88
2022/06/11 06:54:26;;;;;;;1999.90;999.90;;;16.40;99.90;;;;;;5031884;28;20025;-87
2022/06/11 06:56:51;;;;;;;1999.90;999.90;;;16.60;99.80;;;;;;5035047;28;20497;-88
2022/06/11 06:59:17;;;;;;;1999.90;999.90;;;16.60;99.90;;;;;;5031741;28;20037;-88
2022/06/11 07:01:44;;;;;;;1999.90;999.90;;;16.80;99.30;;;;;;5028268;28;20095;-88
2022/06/11 07:04:11;;;;;;;1999.90;999.90;;;16.90;99.90;;;;;;5027217;28;20373;-88
2022/06/11 07:06:37;;;;;;;1999.90;999.90;;;17.10;99.90;;;;;;5024511;28;20045;-87
2022/06/11 07:09:03;;;;;;;1999.90;999.90;;;17.10;95.70;;;;;;5030238;28;20029;-88
2022/06/11 07:11:29;;;;;;;1999.90;999.90;;;17.20;96.10;;;;;;5017355;28;20037;-87
2022/06/11 07:13:55;;;;;;;1999.90;999.90;;;17.30;95.30;;;;;;5039639;28;20060;-87
2022/06/11 07:16:27;;;;;;;1999.90;999.90;;;17.40;94.90;;;;;;5042024;28;20108;-88
2022/06/11 07:18:57;;;;;;;1999.90;999.90;;;17.50;94.30;;;;;;5039990;28;20056;-87
2022/06/11 07:21:32;;;;;;;1999.90;999.90;;;17.50;94.00;;;;;;5015862;28;20040;-88
2022/06/11 07:24:02;;;;;;;1999.90;999.90;;;17.70;93.40;;;;;;5034918;28;20060;-87
2022/06/11 07:26:42;;;;;;;1999.90;999.90;;;17.80;91.10;;;;;;5034282;28;20083;-87
2022/06/11 07:29:37;;;;;;;1999.90;999.90;;;17.90;92.10;;;;;;5027140;28;20425;-87
2022/06/11 07:32:10;;;;;;;1999.90;999.90;;;18.00;92.40;;;;;;5026035;28;20044;-87
2022/06/11 07:34:36;;;;;;;1999.90;999.90;;;18.20;92.60;;;;;;5030839;28;20468;-88
2022/06/11 07:37:02;;;;;;;1999.90;999.90;;;18.30;93.00;;;;;;5008502;28;20288;-88
2022/06/11 07:39:28;;;;;;;1999.90;999.90;;;18.40;91.10;;;;;;5031095;28;20100;-87
2022/06/11 07:41:53;;;;;;;1999.90;999.90;;;18.60;89.90;;;;;;5025244;28;20124;-87
2022/06/11 07:44:19;;;;;;;1999.90;999.90;;;18.60;86.00;;;;;;5046063;28;20033;-88
2022/06/11 07:46:44;;;;;;;1999.90;999.90;;;18.60;84.20;;;;;;5038909;28;20041;-87
2022/06/11 07:49:10;;;;;;;1999.90;999.90;;;18.70;83.10;;;;;;5040301;28;20040;-88
2022/06/11 07:51:36;;;;;;;1999.90;999.90;;;18.80;83.70;;;;;;5031277;28;20275;-87
2022/06/11 07:54:01;;;;;;;1999.90;999.90;;;18.90;81.10;;;;;;5036830;28;20493;-88
2022/06/11 07:56:27;;;;;;;1999.90;999.90;;;19.00;84.60;;;;;;5036742;28;20508;-88
2022/06/11 07:58:53;;;;;;;1999.90;999.90;;;19.20;82.90;;;;;;5035153;28;20092;-87
2022/06/11 08:01:19;;;;;;;1999.90;999.90;;;19.20;76.90;;;;;;5009962;28;20053;-88
2022/06/11 08:03:45;;;;;;;1999.90;999.90;;;19.40;73.30;;;;;;5034792;28;20113;-88
2022/06/11 08:06:11;;;;;;;1999.90;999.90;;;19.60;82.90;;;;;;5033105;28;20536;-87
2022/06/11 08:08:36;;;;;;;1999.90;999.90;;;19.90;73.20;;;;;;5029369;28;20026;-87
2022/06/11 08:11:04;;;;;;;1999.90;999.90;;;20.00;80.00;;;;;;5026517;28;20156;-87
2022/06/11 08:13:30;;;;;;;1999.90;999.90;;;20.00;71.00;;;;;;5037813;28;20021;-88
2022/06/11 08:15:57;;;;;;;1999.90;999.90;;;20.10;69.00;;;;;;5037689;28;20356;-87
2022/06/11 08:18:24;;;;;;;1999.90;999.90;;;20.40;68.30;;;;;;5038705;28;20156;-88
2022/06/11 08:20:51;;;;;;;1999.90;999.90;;;20.40;66.10;;;;;;5022319;28;20025;-88
2022/06/11 08:23:18;;;;;;;1999.90;999.90;;;20.50;69.40;;;;;;5039001;28;20052;-88
2022/06/11 08:25:44;;;;;;;1999.90;999.90;;;20.60;62.80;;;;;;5034793;28;20100;-88
2022/06/11 08:28:13;;;;;;;1999.90;999.90;;;20.60;61.20;;;;;;5032189;28;20048;-87
2022/06/11 08:30:39;;;;;;;1999.90;999.90;;;21.00;62.80;;;;;;5032279;28;20033;-87
2022/06/11 08:33:05;;;;;;;1999.90;999.90;;;20.80;67.60;;;;;;5037429;28;20507;-88
2022/06/11 08:35:33;;;;;;;1999.90;999.90;;;21.10;64.20;;;;;;5032252;28;20034;-88
2022/06/11 08:38:00;;;;;;;1999.90;999.90;;;21.20;64.10;;;;;;5030949;28;20026;-87
2022/06/11 08:40:37;;;;;;;1999.90;999.90;;;21.20;56.50;;;;;;5037671;28;20051;-87
2022/06/11 08:43:24;;;;;;;1999.90;999.90;;;21.10;61.70;;;;;;5035794;28;20048;-88
2022/06/11 08:45:57;;;;;;;1999.90;999.90;;;21.30;56.10;;;;;;5037658;28;20519;-88
2022/06/11 08:48:26;;;;;;;1999.90;999.90;;;21.70;60.30;;;;;;5035766;28;20083;-87
2022/06/11 08:51:04;;;;;;;1999.90;999.90;;;21.80;60.40;;;;;;5036473;28;20029;-87
2022/06/11 08:53:33;;;;;;;1999.90;999.90;;;21.60;60.50;;;;;;5036478;28;20040;-88
2022/06/11 08:55:59;;;;;;;1999.90;999.90;;;22.00;56.00;;;;;;5037492;28;20492;-87
2022/06/11 08:59:04;;;;;;;1999.90;999.90;;;22.40;55.30;;;;;;5032953;28;20030;-87
2022/06/11 09:01:52;;;;;;;1999.90;999.90;;;22.60;50.80;;;;;;5032159;28;20091;-87
2022/06/11 09:04:48;;;;;;;1999.90;999.90;;;22.40;47.00;;;;;;5027232;28;20036;-87
2022/06/11 09:07:38;;;;;;;1999.90;999.90;;;22.80;49.60;;;;;;5028832;28;20037;-87
2022/06/11 09:10:24;;;;;;;1999.90;999.90;;;22.80;48.20;;;;;;5032344;28;20686;-87
2022/06/11 09:13:11;;;;;;;1999.90;999.90;;;22.60;48.50;;;;;;5042570;28;20512;-87
2022/06/11 09:15:55;;;;;;;1999.90;999.90;;;22.50;51.80;;;;;;5041597;28;20049;-87
2022/06/11 09:18:44;;;;;;;1999.90;999.90;;;22.60;44.40;;;;;;5040143;28;20495;-87
2022/06/11 09:21:12;;;;;;;1999.90;999.90;;;22.70;46.70;;;;;;5038425;28;20431;-87
2022/06/11 09:23:58;;;;;;;1999.90;999.90;;;23.20;47.60;;;;;;5037151;28;20464;-87
2022/06/11 09:26:42;;;;;;;1999.90;999.90;;;23.10;44.10;;;;;;5035221;28;20102;-88
2022/06/11 09:29:15;;;;;;;1999.90;999.90;;;23.10;48.30;;;;;;5028377;28;20029;-87
2022/06/11 09:31:46;;;;;;;1999.90;999.90;;;23.40;45.60;;;;;;5028131;28;20084;-87
2022/06/11 09:34:38;;;;;;;1999.90;999.90;;;23.20;44.90;;;;;;5026888;28;20096;-88
2022/06/11 09:37:17;;;;;;;1999.90;999.90;;;23.40;42.50;;;;;;5023607;28;20033;-88
2022/06/11 09:39:57;;;;;;;1999.90;999.90;;;23.40;42.70;;;;;;5024535;28;20038;-87
2022/06/11 09:42:38;;;;;;;1999.90;999.90;;;23.50;39.00;;;;;;5039032;28;20075;-87
2022/06/11 09:45:55;;;;;;;1999.90;999.90;;;23.30;36.10;;;;;;5036734;28;20029;-87
2022/06/11 09:48:47;;;;;;;1999.90;999.90;;;23.70;39.90;;;;;;5035733;28;20528;-87
2022/06/11 09:51:57;;;;;;;1999.90;999.90;;;23.80;40.00;;;;;;5048960;28;20135;-87
2022/06/11 09:54:34;;;;;;;1999.90;999.90;;;23.70;42.40;;;;;;5032682;28;20104;-88
2022/06/11 09:57:23;;;;;;;1999.90;999.90;;;23.50;43.20;;;;;;5035536;28;20029;-88
2022/06/11 10:00:22;;;;;;;1999.90;999.90;;;24.20;39.30;;;;;;5045519;28;20041;-87
2022/06/11 10:03:09;;;;;;;1999.90;999.90;;;24.20;36.50;;;;;;5032896;28;20044;-87
2022/06/11 10:05:46;;;;;;;1999.90;999.90;;;25.10;37.80;;;;;;5032699;28;20337;-86
2022/06/11 10:08:36;;;;;;;1999.90;999.90;;;25.00;35.20;;;;;;5029254;28;20097;-87
2022/06/11 10:11:04;;;;;;;1999.90;999.90;;;24.70;34.50;;;;;;5031210;28;20032;-87
2022/06/11 10:13:39;;;;;;;1999.90;999.90;;;24.70;33.10;;;;;;5042490;28;20025;-87
2022/06/11 10:16:29;;;;;;;1999.90;999.90;;;24.60;31.90;;;;;;5038037;28;20029;-87
2022/06/11 10:19:25;;;;;;;1999.90;999.90;;;24.60;31.70;;;;;;5040360;28;20068;-87
2022/06/11 10:22:09;;;;;;;1999.90;999.90;;;24.70;33.50;;;;;;5033265;28;20040;-86
2022/06/11 10:24:38;;;;;;;1999.90;999.90;;;25.10;32.90;;;;;;5029428;28;20052;-86
2022/06/11 10:27:11;;;;;;;1999.90;999.90;;;25.50;30.10;;;;;;5033928;28;20058;-87
2022/06/11 10:29:46;;;;;;;1999.90;999.90;;;25.50;32.30;;;;;;5028770;28;20114;-86
2022/06/11 10:32:22;;;;;;;1999.90;999.90;;;26.00;34.40;;;;;;5029345;28;20033;-87
2022/06/11 10:34:58;;;;;;;1999.90;999.90;;;25.40;32.10;;;;;;5026524;28;20052;-86
2022/06/11 10:37:35;;;;;;;1999.90;999.90;;;25.10;32.90;;;;;;5026285;28;20045;-89
2022/06/11 10:40:26;;;;;;;1999.90;999.90;;;25.10;33.50;;;;;;5034198;28;20592;-87
2022/06/11 10:43:10;;;;;;;1999.90;999.90;;;25.50;29.90;;;;;;5055882;28;20029;-87
2022/06/11 10:45:37;;;;;;;1999.90;999.90;;;25.60;32.30;;;;;;5033655;28;20025;-87
2022/06/11 10:48:12;;;;;;;1999.90;999.90;;;25.70;30.30;;;;;;5032925;28;20029;-88
2022/06/11 10:50:38;;;;;;;1999.90;999.90;;;26.10;29.50;;;;;;5033159;28;20445;-87
2022/06/11 10:53:23;;;;;;;1999.90;999.90;;;26.10;27.60;;;;;;5031620;28;20075;-87
2022/06/11 10:56:14;;;;;;;1999.90;999.90;;;26.50;30.10;;;;;;5029349;28;20030;-88
2022/06/11 10:58:49;;;;;;;1999.90;999.90;;;26.90;32.10;;;;;;5024758;28;20087;-87
2022/06/11 11:01:29;;;;;;;1999.90;999.90;;;26.60;26.10;;;;;;5028805;28;20123;-87
2022/06/11 11:04:05;;;;;;;1999.90;999.90;;;26.80;29.70;;;;;;5029669;28;20028;-87
2022/06/11 11:06:36;;;;;;;1999.90;999.90;;;27.70;31.40;;;;;;5030525;28;20425;-87
2022/06/11 11:09:24;;;;;;;1999.90;999.90;;;27.70;26.50;;;;;;5024072;28;20492;-87
2022/06/11 11:11:53;;;;;;;1999.90;999.90;;;27.50;31.50;;;;;;5038656;28;20032;-88
2022/06/11 11:14:40;;;;;;;1999.90;999.90;;;28.30;28.50;;;;;;5044749;28;20025;-87
2022/06/11 11:17:18;;;;;;;1999.90;999.90;;;28.50;26.80;;;;;;5040343;28;20534;-87
2022/06/11 11:20:29;;;;;;;1999.90;999.90;;;28.80;27.00;;;;;;5040644;28;20032;-87
2022/06/11 11:22:35;;;;;;;1999.90;999.90;;;28.50;26.20;;;;;;5037191;28;20508;-87
2022/06/11 11:25:03;;;;;;;1999.90;999.90;;;28.70;25.80;;;;;;5035914;28;20065;-87
2022/06/11 11:27:40;;;;;;;1999.90;999.90;;;29.70;24.30;;;;;;5046000;28;20692;-87
2022/06/11 11:30:15;;;;;;;1999.90;999.90;;;29.80;28.60;;;;;;5033975;28;20041;-87
2022/06/11 11:32:44;;;;;;;1999.90;999.90;;;30.60;24.90;;;;;;5023633;28;20448;-87
2022/06/11 11:35:24;;;;;;;1999.90;999.90;;;29.20;28.10;;;;;;5027758;28;20420;-87
2022/06/11 11:38:01;;;;;;;1999.90;999.90;;;29.50;27.80;;;;;;5026744;28;20045;-87
2022/06/11 11:40:47;;;;;;;1999.90;999.90;;;30.40;26.40;;;;;;5046261;28;20060;-88
2022/06/11 11:43:14;;;;;;;1999.90;999.90;;;29.80;25.80;;;;;;5045470;28;20037;-87
2022/06/11 11:45:42;;;;;;;1999.90;999.90;;;31.10;24.60;;;;;;5044154;28;20104;-87
2022/06/11 11:48:15;;;;;;;1999.90;999.90;;;30.30;23.60;;;;;;5038593;28;20072;-87
2022/06/11 11:50:42;;;;;;;1999.90;999.90;;;30.60;23.70;;;;;;5033823;28;20087;-87
2022/06/11 11:53:29;;;;;;;1999.90;999.90;;;30.90;23.60;;;;;;5038823;28;20037;-88
2022/06/11 11:56:04;;;;;;;1999.90;999.90;;;29.50;27.80;;;;;;5036328;28;20511;-87
2022/06/11 11:58:39;;;;;;;1999.90;999.90;;;30.20;24.50;;;;;;5036243;28;20021;-87
2022/06/11 12:01:16;;;;;;;1999.90;999.90;;;30.40;25.30;;;;;;5031342;28;20037;-87
2022/06/11 12:03:47;;;;;;;1999.90;999.90;;;30.10;24.10;;;;;;5030237;28;20040;-88
2022/06/11 12:06:17;;;;;;;1999.90;999.90;;;31.10;23.40;;;;;;5026391;28;20504;-88
2022/06/11 12:08:48;;;;;;;1999.90;999.90;;;30.30;25.70;;;;;;5027825;28;20083;-88
2022/06/11 12:11:26;;;;;;;1999.90;999.90;;;30.90;24.40;;;;;;5045498;28;20029;-87
2022/06/11 12:13:58;;;;;;;1999.90;999.90;;;32.30;24.00;;;;;;5041596;28;20289;-87
2022/06/11 12:16:32;;;;;;;1999.90;999.90;;;31.40;24.10;;;;;;5039372;28;20043;-88
2022/06/11 12:19:10;;;;;;;1999.90;999.90;;;32.40;24.50;;;;;;5035004;28;20025;-88
2022/06/11 12:21:41;;;;;;;1999.90;999.90;;;31.10;24.30;;;;;;5036446;28;20373;-87
2022/06/11 12:24:10;;;;;;;1999.90;999.90;;;31.30;23.20;;;;;;5034328;28;20025;-87
2022/06/11 12:26:40;;;;;;;1999.90;999.90;;;32.20;24.00;;;;;;5032677;28;20025;-87